AirNav   TITAN Aviation Fuels
 
 1394 users online  

MU00 Samuel L Clemens Memorial Airport
Paris, Missouri, USA

GOING TO PARIS?


FAA INFORMATION EFFECTIVE 01 DECEMBER 2022

Location

FAA Identifier: MU00
Lat/Long: 39-26-40.1410N 091-57-06.6070W
39-26.669017N 091-57.110117W
39.4444836,-91.9518353
(estimated)
Elevation: 730 ft. / 223 m (estimated)
Variation: 03E (1985)
From city: 3 miles SE of PARIS, MO
Time zone: UTC -6 (UTC -5 during Daylight Saving Time)
Zip code: 65275

Airport Operations

Airport use: Private use. Permission required prior to landing
Activation date: 03/1980
Control tower: no
ARTCC: KANSAS CITY CENTER
FSS: SAINT LOUIS FLIGHT SERVICE STATION
Attendance: CONTINUOUS
Wind indicator: yes
Segmented circle: no

Airport Communications

WX AWOS-3PT at MYJ (18 nm S): 120.575 (573-581-7868)

Nearby radio navigation aids

VOR radial/distance  VOR name  Freq  Var
HLVr016/21.5HALLSVILLE VORTAC114.2006E
UINr227/39.4QUINCY VORTAC113.6005E
COUr018/40.0COLUMBIA VOR/DME110.2000E

Airport Services

Airframe service: NONE
Powerplant service: NONE
Bottled oxygen: NONE
Bulk oxygen: NONE

Runway Information

Runway N/S

Dimensions: 2000 x 50 ft. / 610 x 15 m
Surface: turf
RUNWAY N  RUNWAY S
Traffic pattern: leftleft
Runway end identifier lights: nono
Obstructions: 20 ft. pline, 200 ft. from runway20 ft. tree

Airport Ownership and Management from official FAA records

Ownership: Privately-owned
Owner: JIM PRIMM
RT 2, BOX 218
PARIS, MO 65275
Phone 816-327-5576
Manager: JIM PRIMM
RT 2, BOX 218
PARIS, MO 65275
Phone 816-327-5576

Airport Operational Statistics

Aircraft based on the field: 1
Single engine airplanes: 1
    

Additional Remarks

FOR CD CTC MIZZOU APCH AT 417-868-5620/5619.

Instrument Procedures

There are no published instrument procedures at MU00.

Some nearby airports with instrument procedures:

K52 - Cpt Ben Smith Airfield - Monroe City (15 nm NE)
KMYJ - Mexico Memorial Airport (18 nm S)
KMBY - Omar N Bradley Airport (22 nm W)
KHAE - Hannibal Regional Airport (29 nm NE)
K89 - Macon-Fower Memorial Airport (29 nm NW)
 
Loc | Ops | Rwys | IFR | FBO | Links
Com | Nav | Svcs | Stats | Notes
Area around MU00 (Samuel L Clemens Memorial Airport)
 
Road maps at: MapQuest Bing Google
 
Aerial photo
No photo
 
Sectional chart

 
Airport distance calculator
Flying to Samuel L Clemens Memorial Airport? Find the distance to fly.

From to MU00

Sunrise and sunset
Times for 02-Dec-2022
 Local
(UTC-6)
 Zulu
(UTC)
Morning civil twilight06:4112:41
Sunrise07:1113:11
Sunset16:4422:44
Evening civil twilight17:1323:13

Current date and time
Zulu (UTC)  02-Dec-2022 17:27:59
Local (UTC-6)  02-Dec-2022 11:27:59
 
METAR
KMYJ 
18nm S 
021715Z AUTO 20024G34KT 10SM BKN027 13/06 A2981 RMK AO2
KMBY 
22nm W 
021715Z AUTO 20024G30KT 10SM CLR 13/04 A2976 RMK AO2
KHAE 
29nm NE 
021715Z AUTO 19014G28KT 10SM CLR 14/03 A2980 RMK AO2
TAF
KCOU 
40nm S 
021129Z 0212/0312 17011G17KT P6SM BKN030 FM021700 20022G39KT P6SM BKN030 FM022300 21015G25KT P6SM BKN035 FM030400 26019G34KT P6SM SCT035 FM030900 32014G24KT P6SM FEW240
KUIN 
46nm NE 
021129Z 0212/0312 17014G22KT P6SM BKN150 FM021800 20021G37KT P6SM BKN050 FM030300 23015G27KT P6SM BKN020 FM030600 31022G34KT P6SM SCT045
NOTAMs
Click for the latest NOTAMs
NOTAMs are issued by the DoD/FAA and will open in a separate window not controlled by AirNav.

 

 
 

Would you like to see your business listed on this page?

 If your business provides an interesting product or service to pilots, flight crews, aircraft, or users of the Samuel L Clemens Memorial Airport, you should consider listing it here.  To start the listing process, click on the button below
 
Add a business
 

Other Pages about Samuel L Clemens Memorial Airport

Update a link
 
Copyright © AirNav, LLC. All rights reserved. Privacy Policy  Contact